Time;durP1;ratioP1;P1;durP2;ratioP2;P2;SDS_P1;SDS_P2;PMS_P1;PMS_P2;Temp;Humidity;BMP_temperature;BMP_pressure;BME280_temperature;BME280_humidity;BME280_pressure;Samples;Min_cycle;Max_cycle;Signal;HPM_P1;HPM_P2
2021/09/25 00:00:46;;;;;;;2.10;1.90;;;16.90;99.90;;;;;;5061769;28;19916;-79
2021/09/25 00:03:11;;;;;;;;;;;17.00;99.90;;;;;;5068709;28;20074;-79
2021/09/25 00:05:39;;;;;;;4.07;2.17;;;16.90;99.90;;;;;;5062019;28;19924;-79
2021/09/25 00:08:05;;;;;;;5.32;1.63;;;16.90;99.90;;;;;;5053552;28;20102;-79
2021/09/25 00:10:32;;;;;;;1.67;1.42;;;17.00;99.90;;;;;;5058118;28;20527;-79
2021/09/25 00:12:58;;;;;;;5.72;2.78;;;16.90;99.90;;;;;;5068460;28;20083;-78
2021/09/25 00:15:27;;;;;;;3.28;1.85;;;16.90;99.90;;;;;;5071499;28;20459;-79
2021/09/25 00:17:52;;;;;;;6.70;2.25;;;16.90;99.90;;;;;;5065714;28;20052;-79
2021/09/25 00:20:19;;;;;;;1.95;1.35;;;16.90;99.90;;;;;;5073437;28;20041;-79
2021/09/25 00:22:45;;;;;;;3.97;2.53;;;17.00;99.90;;;;;;5060258;28;20041;-79
2021/09/25 00:25:11;;;;;;;2.97;2.25;;;16.90;99.90;;;;;;5067155;28;20036;-80
2021/09/25 00:27:38;;;;;;;5.22;2.28;;;16.90;99.90;;;;;;5053477;28;20040;-79
2021/09/25 00:30:06;;;;;;;9.25;2.28;;;16.90;99.90;;;;;;5026888;28;20041;-80
2021/09/25 00:32:32;;;;;;;3.08;1.85;;;16.90;99.90;;;;;;5056819;28;20032;-80
2021/09/25 00:34:58;;;;;;;1.27;1.17;;;16.90;99.90;;;;;;5033861;28;20044;-79
2021/09/25 00:37:24;;;;;;;5.57;1.80;;;16.90;99.90;;;;;;5043907;28;20406;-80
2021/09/25 00:39:49;;;;;;;;;;;16.90;99.90;;;;;;5020147;28;20041;-81
2021/09/25 00:42:15;;;;;;;6.70;1.75;;;16.90;99.90;;;;;;5054067;28;20050;-79
2021/09/25 00:44:41;;;;;;;;;;;16.90;99.90;;;;;;5039786;28;20615;-80
2021/09/25 00:47:07;;;;;;;2.60;1.70;;;16.90;99.90;;;;;;5041014;28;19963;-79
2021/09/25 00:49:32;;;;;;;;;;;16.90;99.90;;;;;;5040254;28;20358;-81
2021/09/25 00:51:58;;;;;;;4.35;2.35;;;16.90;99.90;;;;;;5050724;28;20369;-80
2021/09/25 00:54:24;;;;;;;;;;;16.90;99.90;;;;;;5056939;28;20083;-79
2021/09/25 00:56:50;;;;;;;2.92;2.20;;;17.00;99.90;;;;;;5041435;28;19923;-80
2021/09/25 00:59:18;;;;;;;4.88;2.40;;;16.90;99.90;;;;;;5042959;28;20037;-80
2021/09/25 01:01:46;;;;;;;6.32;3.00;;;16.90;99.90;;;;;;5063660;28;20455;-80
2021/09/25 01:04:13;;;;;;;2.70;1.85;;;16.90;99.90;;;;;;5039681;28;20048;-80
2021/09/25 01:06:38;;;;;;;2.63;1.85;;;16.90;99.90;;;;;;5063155;28;20497;-81
2021/09/25 01:09:04;;;;;;;6.07;2.17;;;16.90;99.90;;;;;;5019465;28;20040;-80
2021/09/25 01:11:30;;;;;;;;;;;16.90;99.90;;;;;;5038276;28;20413;-79
2021/09/25 01:13:56;;;;;;;3.83;2.30;;;17.00;99.90;;;;;;5025537;28;20015;-79
2021/09/25 01:16:22;;;;;;;;;;;16.90;99.90;;;;;;5046164;28;20048;-80
2021/09/25 01:18:49;;;;;;;3.42;2.25;;;17.00;99.90;;;;;;5042594;28;19920;-79
2021/09/25 01:21:15;;;;;;;3.08;2.03;;;16.90;99.90;;;;;;5053255;28;20617;-79
2021/09/25 01:23:41;;;;;;;13.07;3.08;;;16.90;99.90;;;;;;5058346;28;20064;-78
2021/09/25 01:26:06;;;;;;;;;;;17.00;99.90;;;;;;5038266;28;20059;-80
2021/09/25 01:28:34;;;;;;;3.60;2.35;;;17.00;99.90;;;;;;5052498;28;19978;-78
2021/09/25 01:31:02;;;;;;;8.05;3.28;;;16.90;99.90;;;;;;5054772;28;20059;-79
2021/09/25 01:33:42;;;;;;;4.63;2.47;;;17.00;99.90;;;;;;5067853;28;20071;-80
2021/09/25 01:36:08;;;;;;;10.77;2.50;;;17.00;99.90;;;;;;5050577;28;20494;-77
2021/09/25 01:38:35;;;;;;;1.98;1.80;;;17.00;99.90;;;;;;5067285;28;20051;-79
2021/09/25 01:41:01;;;;;;;4.00;2.13;;;17.00;99.90;;;;;;5053444;28;20086;-78
2021/09/25 01:43:29;;;;;;;;;;;17.00;99.90;;;;;;5025123;28;20040;-81
2021/09/25 01:45:56;;;;;;;7.30;2.45;;;17.00;99.90;;;;;;5062332;28;19927;-79
2021/09/25 01:48:22;;;;;;;2.80;1.92;;;17.00;99.90;;;;;;5051771;28;20049;-80
2021/09/25 01:50:48;;;;;;;4.05;2.38;;;16.90;99.90;;;;;;5061768;28;20101;-78
2021/09/25 01:53:14;;;;;;;2.95;1.73;;;16.90;99.90;;;;;;5047439;28;20048;-79
2021/09/25 01:55:39;;;;;;;;;;;17.00;99.90;;;;;;5069692;28;20083;-78
2021/09/25 01:58:05;;;;;;;9.30;2.60;;;17.00;99.90;;;;;;5069360;28;19973;-79
2021/09/25 02:00:34;;;;;;;1.98;1.75;;;17.00;99.90;;;;;;5058873;28;20067;-79
2021/09/25 02:03:00;;;;;;;5.93;2.58;;;17.10;99.90;;;;;;5068411;28;20165;-77
2021/09/25 02:05:27;;;;;;;5.35;2.47;;;17.10;99.90;;;;;;5057977;28;20154;-78
2021/09/25 02:07:52;;;;;;;4.15;2.33;;;17.10;99.90;;;;;;5041367;28;20041;-80
2021/09/25 02:10:18;;;;;;;;;;;17.00;99.90;;;;;;5061520;28;20062;-81
2021/09/25 02:12:44;;;;;;;3.35;2.25;;;17.10;99.90;;;;;;5048257;28;19921;-81
2021/09/25 02:15:10;;;;;;;5.03;2.63;;;17.10;99.90;;;;;;5040687;28;20060;-80
2021/09/25 02:17:36;;;;;;;;;;;17.10;99.90;;;;;;5057256;28;20059;-80
2021/09/25 02:20:04;;;;;;;5.68;2.40;;;17.10;99.90;;;;;;5061261;28;20373;-79
2021/09/25 02:22:29;;;;;;;9.13;3.20;;;17.10;99.90;;;;;;5067239;28;20051;-80
2021/09/25 02:24:55;;;;;;;;;;;17.10;99.90;;;;;;5066581;28;20399;-79
2021/09/25 02:27:20;;;;;;;4.20;2.40;;;17.00;99.90;;;;;;5064148;28;19920;-79
2021/09/25 02:29:46;;;;;;;;;;;17.10;99.90;;;;;;5061549;28;20054;-81
2021/09/25 02:32:12;;;;;;;3.75;2.20;;;17.10;99.90;;;;;;5055794;28;19916;-79
2021/09/25 02:34:38;;;;;;;;;;;17.10;99.90;;;;;;5040118;28;20048;-82
2021/09/25 02:37:06;;;;;;;8.88;3.67;;;17.10;99.90;;;;;;5051179;28;19964;-81
2021/09/25 02:39:33;;;;;;;5.13;2.50;;;17.10;99.90;;;;;;5070508;28;20496;-81
2021/09/25 02:41:59;;;;;;;4.05;2.25;;;17.00;99.90;;;;;;5040042;28;20469;-78
2021/09/25 02:44:25;;;;;;;3.30;2.35;;;17.00;99.90;;;;;;5059721;28;20075;-79
2021/09/25 02:46:52;;;;;;;10.93;2.90;;;17.10;99.90;;;;;;5043425;28;20082;-79
2021/09/25 02:49:19;;;;;;;3.72;1.70;;;17.00;99.90;;;;;;5061957;28;20051;-79
2021/09/25 02:51:46;;;;;;;4.10;1.90;;;17.00;99.90;;;;;;5056538;28;20040;-80
2021/09/25 02:54:12;;;;;;;3.30;1.65;;;16.90;99.90;;;;;;5043034;28;20032;-82
2021/09/25 02:56:37;;;;;;;;;;;16.90;99.90;;;;;;5067409;28;20405;-80
2021/09/25 02:59:03;;;;;;;13.75;2.13;;;16.90;99.90;;;;;;5057838;28;20009;-81
2021/09/25 03:01:30;;;;;;;2.88;1.75;;;16.80;99.90;;;;;;5057087;28;20041;-80
2021/09/25 03:03:55;;;;;;;6.10;2.00;;;16.70;99.90;;;;;;5058095;28;20040;-79
2021/09/25 03:06:26;;;;;;;7.25;2.97;;;16.60;99.90;;;;;;5048768;28;20056;-82
2021/09/25 03:08:52;;;;;;;2.60;1.83;;;16.60;99.90;;;;;;5056584;28;20048;-78
2021/09/25 03:11:18;;;;;;;6.45;2.38;;;16.60;99.90;;;;;;5070590;28;20039;-81
2021/09/25 03:13:45;;;;;;;6.18;2.20;;;16.60;99.90;;;;;;5042668;28;20367;-78
2021/09/25 03:16:12;;;;;;;3.08;2.40;;;16.70;99.90;;;;;;5045443;28;20467;-78
2021/09/25 03:18:38;;;;;;;7.60;2.53;;;16.70;99.90;;;;;;5058375;28;20049;-79
2021/09/25 03:21:04;;;;;;;5.07;2.30;;;16.70;99.90;;;;;;5039528;28;20037;-80
2021/09/25 03:23:30;;;;;;;;;;;16.70;99.90;;;;;;5058782;28;20040;-78
2021/09/25 03:25:55;;;;;;;5.95;2.67;;;16.80;99.90;;;;;;5072076;28;19930;-80
2021/09/25 03:28:21;;;;;;;;;;;16.80;99.90;;;;;;5042868;28;20621;-79
2021/09/25 03:30:47;;;;;;;2.92;1.98;;;16.80;99.90;;;;;;5039639;28;19923;-79
2021/09/25 03:33:13;;;;;;;;;;;16.80;99.90;;;;;;5055046;28;20040;-79
2021/09/25 03:35:42;;;;;;;2.20;1.90;;;16.90;99.90;;;;;;5059028;28;20011;-81
2021/09/25 03:38:08;;;;;;;7.45;3.10;;;16.60;99.90;;;;;;5062622;28;20060;-78
2021/09/25 03:40:33;;;;;;;3.35;2.35;;;16.90;99.90;;;;;;5048076;28;20119;-78
2021/09/25 03:42:59;;;;;;;;;;;16.80;99.90;;;;;;5056514;28;20032;-78
2021/09/25 03:45:25;;;;;;;5.18;2.85;;;16.80;99.90;;;;;;5062144;28;19974;-78
2021/09/25 03:47:57;;;;;;;8.57;2.67;;;16.90;99.90;;;;;;5041023;28;20033;-79
2021/09/25 03:50:23;;;;;;;7.68;3.08;;;16.90;99.90;;;;;;5062388;28;20037;-80
2021/09/25 03:52:48;;;;;;;;;;;16.80;99.90;;;;;;5067507;28;20056;-80
2021/09/25 03:55:14;;;;;;;4.63;1.88;;;16.90;99.90;;;;;;5055382;28;19923;-81
2021/09/25 03:57:39;;;;;;;;;;;16.90;99.90;;;;;;5053697;28;20093;-81
2021/09/25 04:00:06;;;;;;;3.60;2.28;;;16.90;99.90;;;;;;5047169;28;19916;-78
2021/09/25 04:02:31;;;;;;;2.88;2.05;;;16.80;99.90;;;;;;5043628;28;20488;-77
2021/09/25 04:04:57;;;;;;;3.20;2.33;;;16.80;99.90;;;;;;5037287;28;20170;-76
2021/09/25 04:07:23;;;;;;;3.78;2.50;;;16.70;99.90;;;;;;5057202;28;20032;-76
2021/09/25 04:09:48;;;;;;;;;;;16.60;99.90;;;;;;5053313;28;20043;-78
2021/09/25 04:12:14;;;;;;;3.15;2.00;;;16.60;99.90;;;;;;5054989;28;19916;-77
2021/09/25 04:14:40;;;;;;;;;;;16.60;99.90;;;;;;5055309;28;20535;-77
2021/09/25 04:17:05;;;;;;;2.72;2.30;;;16.50;99.90;;;;;;5067664;28;19923;-79
2021/09/25 04:19:31;;;;;;;;;;;16.50;99.90;;;;;;5060831;28;20036;-78
2021/09/25 04:21:57;;;;;;;6.15;2.65;;;16.40;99.90;;;;;;5068776;28;19985;-78
2021/09/25 04:24:22;;;;;;;;;;;16.40;99.90;;;;;;5057023;28;20094;-78
2021/09/25 04:26:48;;;;;;;3.33;2.17;;;16.30;99.90;;;;;;5055880;28;20018;-78
2021/09/25 04:29:14;;;;;;;;;;;16.30;99.90;;;;;;5047541;28;20043;-80
2021/09/25 04:31:40;;;;;;;3.72;2.25;;;16.30;99.90;;;;;;5029548;28;19916;-78
2021/09/25 04:34:07;;;;;;;3.00;2.28;;;16.20;99.90;;;;;;5061423;28;20040;-77
2021/09/25 04:36:32;;;;;;;;;;;16.20;99.90;;;;;;5072002;28;20071;-78
2021/09/25 04:38:59;;;;;;;6.30;2.80;;;16.10;99.90;;;;;;5053818;28;20007;-81
2021/09/25 04:41:25;;;;;;;5.00;2.20;;;16.10;99.90;;;;;;5043463;28;20044;-77
2021/09/25 04:43:50;;;;;;;2.63;2.33;;;16.10;99.90;;;;;;5060302;28;20493;-80
2021/09/25 04:46:16;;;;;;;;;;;16.10;99.90;;;;;;5042411;28;20048;-79
2021/09/25 04:48:42;;;;;;;4.07;2.83;;;16.10;99.90;;;;;;5069572;28;19927;-80
2021/09/25 04:51:08;;;;;;;2.58;2.03;;;16.10;99.90;;;;;;5042056;28;20036;-80
2021/09/25 04:53:33;;;;;;;;;;;16.10;99.90;;;;;;5035928;28;20029;-79
2021/09/25 04:56:00;;;;;;;4.53;2.83;;;16.20;99.90;;;;;;5033685;28;19923;-78
2021/09/25 04:58:29;;;;;;;8.48;3.67;;;16.20;99.90;;;;;;5062664;28;20127;-78
2021/09/25 05:00:58;;;;;;;5.97;2.53;;;16.20;99.90;;;;;;5023597;28;20044;-78
2021/09/25 05:03:25;;;;;;;4.50;2.38;;;16.20;99.90;;;;;;5030902;28;20619;-82
2021/09/25 05:05:51;;;;;;;6.82;2.03;;;16.20;99.90;;;;;;5016829;28;20050;-78
2021/09/25 05:08:17;;;;;;;2.70;2.22;;;16.20;99.90;;;;;;5066528;28;20066;-81
2021/09/25 05:10:43;;;;;;;;;;;16.10;99.90;;;;;;5037947;28;20440;-78
2021/09/25 05:13:09;;;;;;;5.10;2.70;;;16.10;99.90;;;;;;5037730;28;19959;-79
2021/09/25 05:15:34;;;;;;;;;;;16.10;99.90;;;;;;5062550;28;20037;-77
2021/09/25 05:18:00;;;;;;;5.15;2.65;;;16.00;99.90;;;;;;5047214;28;19923;-78
2021/09/25 05:20:26;;;;;;;;;;;16.10;99.90;;;;;;5037054;28;20036;-78
2021/09/25 05:22:52;;;;;;;14.52;3.05;;;16.20;99.90;;;;;;5066151;28;19941;-77
2021/09/25 05:25:18;;;;;;;7.65;3.50;;;16.20;99.90;;;;;;5060519;28;20044;-78
2021/09/25 05:27:44;;;;;;;;;;;16.20;99.90;;;;;;5046688;28;20458;-77
2021/09/25 05:30:10;;;;;;;5.05;2.15;;;16.20;99.90;;;;;;5047269;28;19916;-78
2021/09/25 05:32:36;;;;;;;4.15;2.67;;;16.20;99.90;;;;;;5047429;28;20051;-80
2021/09/25 05:35:04;;;;;;;4.25;2.20;;;16.20;99.90;;;;;;5045528;28;20037;-77
2021/09/25 05:37:29;;;;;;;11.07;2.53;;;16.10;99.90;;;;;;5029559;28;20075;-80
2021/09/25 05:39:55;;;;;;;3.30;2.60;;;16.10;99.90;;;;;;5061196;28;20045;-79
2021/09/25 05:42:25;;;;;;;;;;;16.20;99.90;;;;;;5045979;28;20040;-81
2021/09/25 05:44:54;;;;;;;5.07;2.53;;;16.20;99.90;;;;;;5051164;28;20002;-78
2021/09/25 05:47:23;;;;;;;5.35;2.75;;;16.20;99.90;;;;;;5059561;28;20044;-80
2021/09/25 05:49:49;;;;;;;3.20;2.58;;;16.30;99.90;;;;;;5060455;28;20032;-81
2021/09/25 05:52:16;;;;;;;4.18;2.80;;;16.30;99.90;;;;;;5052015;28;20379;-78
2021/09/25 05:54:43;;;;;;;4.00;2.53;;;16.30;99.90;;;;;;5065735;28;20044;-79
2021/09/25 05:57:09;;;;;;;3.50;2.10;;;16.30;99.90;;;;;;5062827;28;20489;-79
2021/09/25 05:59:35;;;;;;;;;;;16.30;99.90;;;;;;5065476;28;20051;-79
2021/09/25 06:02:02;;;;;;;2.40;1.65;;;16.30;99.90;;;;;;5057957;28;20421;-80
2021/09/25 06:04:28;;;;;;;3.95;2.17;;;16.30;99.90;;;;;;5049494;28;20115;-82
2021/09/25 06:06:54;;;;;;;4.35;2.33;;;16.30;99.90;;;;;;5059857;28;20045;-79
2021/09/25 06:09:20;;;;;;;3.22;2.80;;;16.40;99.90;;;;;;5042458;28;20028;-80
2021/09/25 06:11:49;;;;;;;8.00;2.88;;;16.40;99.90;;;;;;5054970;28;20029;-81
2021/09/25 06:14:15;;;;;;;3.38;1.92;;;16.50;99.90;;;;;;5057454;28;20493;-81
2021/09/25 06:16:41;;;;;;;6.40;3.45;;;16.60;99.90;;;;;;5059881;28;20070;-80
2021/09/25 06:19:07;;;;;;;;;;;16.60;99.90;;;;;;5063849;28;20049;-79
2021/09/25 06:21:32;;;;;;;4.90;3.20;;;16.60;99.90;;;;;;5055462;28;19996;-79
2021/09/25 06:23:58;;;;;;;;;;;16.70;99.90;;;;;;5056440;28;20047;-80
2021/09/25 06:26:24;;;;;;;8.93;2.70;;;16.70;99.90;;;;;;5070839;28;19928;-79
2021/09/25 06:28:49;;;;;;;;;;;16.80;99.90;;;;;;5069972;28;20438;-80
2021/09/25 06:31:17;;;;;;;3.80;1.90;;;16.80;99.90;;;;;;5055208;28;20255;-80
2021/09/25 06:33:44;;;;;;;3.17;2.45;;;16.80;99.90;;;;;;5060805;28;20044;-80
2021/09/25 06:36:12;;;;;;;6.57;2.88;;;16.80;99.90;;;;;;5058259;28;20088;-78
2021/09/25 06:38:38;;;;;;;3.92;3.28;;;16.90;99.90;;;;;;5060457;28;20110;-81
2021/09/25 06:41:04;;;;;;;7.38;3.78;;;17.00;99.90;;;;;;5057932;28;20032;-79
2021/09/25 06:43:30;;;;;;;7.70;2.88;;;17.00;99.90;;;;;;5057289;28;20036;-79
2021/09/25 06:45:56;;;;;;;;;;;17.00;99.90;;;;;;5076079;28;20052;-79
2021/09/25 06:48:21;;;;;;;5.25;3.30;;;17.10;99.90;;;;;;5061088;28;20402;-80
2021/09/25 06:50:47;;;;;;;;;;;17.10;99.90;;;;;;5062317;28;20043;-80
2021/09/25 06:53:13;;;;;;;5.35;3.47;;;17.20;99.90;;;;;;5075319;28;19920;-79
2021/09/25 06:55:40;;;;;;;;;;;17.30;99.90;;;;;;5059551;28;20101;-78
2021/09/25 06:58:06;;;;;;;4.85;2.88;;;17.30;99.90;;;;;;5058330;28;19923;-77
2021/09/25 07:00:33;;;;;;;9.60;2.78;;;17.30;99.90;;;;;;5059435;28;20482;-79
2021/09/25 07:02:58;;;;;;;3.97;3.30;;;17.30;99.90;;;;;;5061485;28;20505;-79
2021/09/25 07:05:24;;;;;;;;;;;17.40;99.90;;;;;;5062276;28;20044;-80
2021/09/25 07:07:50;;;;;;;3.90;2.60;;;17.30;99.90;;;;;;5043356;28;19927;-77
2021/09/25 07:10:15;;;;;;;;;;;17.40;99.90;;;;;;5059808;28;20100;-78
2021/09/25 07:12:42;;;;;;;4.20;3.10;;;17.40;99.90;;;;;;5056955;28;19916;-77
2021/09/25 07:15:09;;;;;;;8.70;3.63;;;17.40;99.90;;;;;;5063954;28;20044;-80
2021/09/25 07:17:35;;;;;;;10.77;3.75;;;17.40;99.90;;;;;;5060303;28;20033;-78
2021/09/25 07:20:00;;;;;;;;;;;17.50;99.90;;;;;;5075171;28;20371;-79
2021/09/25 07:22:26;;;;;;;3.67;2.97;;;17.50;99.90;;;;;;5059241;28;19938;-81
2021/09/25 07:24:54;;;;;;;;;;;17.50;99.90;;;;;;5040144;28;20179;-80
2021/09/25 07:27:22;;;;;;;7.28;3.80;;;17.60;99.90;;;;;;5056416;28;20011;-79
2021/09/25 07:29:48;;;;;;;5.32;2.83;;;17.70;99.90;;;;;;5075266;28;20037;-80
2021/09/25 07:32:15;;;;;;;3.70;3.00;;;17.70;99.90;;;;;;5043827;28;20137;-79
2021/09/25 07:34:41;;;;;;;11.65;2.80;;;17.80;99.90;;;;;;5073690;28;20025;-78
2021/09/25 07:37:06;;;;;;;;;;;17.80;99.90;;;;;;5060795;28;20084;-79
2021/09/25 07:39:33;;;;;;;6.28;3.60;;;17.90;99.90;;;;;;5056877;28;19917;-79
2021/09/25 07:41:59;;;;;;;6.85;2.92;;;18.10;99.90;;;;;;5056616;28;20048;-81
2021/09/25 07:44:24;;;;;;;;;;;18.20;99.90;;;;;;5062044;28;20050;-80
2021/09/25 07:46:50;;;;;;;3.88;2.88;;;18.20;99.90;;;;;;5062069;28;19928;-79
2021/09/25 07:49:15;;;;;;;;;;;18.40;99.90;;;;;;5062836;28;20381;-78
2021/09/25 07:51:41;;;;;;;10.52;3.88;;;18.50;99.90;;;;;;5049682;28;20006;-78
2021/09/25 07:54:07;;;;;;;;;;;18.50;99.90;;;;;;5069655;28;20037;-79
2021/09/25 07:56:33;;;;;;;6.45;3.58;;;18.60;99.90;;;;;;5072626;28;20406;-79
2021/09/25 07:58:59;;;;;;;5.03;2.47;;;18.70;99.90;;;;;;5071958;28;20571;-78
2021/09/25 08:01:24;;;;;;;3.75;2.20;;;18.80;99.90;;;;;;5071963;28;20041;-80
2021/09/25 08:03:50;;;;;;;;;;;18.80;99.90;;;;;;5071288;28;20398;-78
2021/09/25 08:06:15;;;;;;;3.92;2.22;;;18.90;99.90;;;;;;5067904;28;20006;-78
2021/09/25 08:08:41;;;;;;;;;;;19.00;99.90;;;;;;5060362;28;20044;-78
2021/09/25 08:11:07;;;;;;;3.17;2.42;;;19.00;99.90;;;;;;5045423;28;19916;-79
2021/09/25 08:13:32;;;;;;;;;;;19.00;99.90;;;;;;5058814;28;20037;-79
2021/09/25 08:15:58;;;;;;;2.13;1.65;;;19.10;99.90;;;;;;5048871;28;20346;-80
2021/09/25 08:18:26;;;;;;;5.72;2.35;;;19.10;99.90;;;;;;5048334;28;20045;-78
2021/09/25 08:20:52;;;;;;;3.03;2.25;;;19.10;99.90;;;;;;5061003;28;20104;-78
2021/09/25 08:23:17;;;;;;;6.75;2.05;;;19.20;99.90;;;;;;5058678;28;20116;-79
2021/09/25 08:25:43;;;;;;;;;;;19.30;99.90;;;;;;5072809;28;20064;-79
2021/09/25 08:28:09;;;;;;;5.72;2.60;;;19.30;99.90;;;;;;5064756;28;19916;-78
2021/09/25 08:30:34;;;;;;;;;;;19.30;99.90;;;;;;5059071;28;20068;-78
2021/09/25 08:33:00;;;;;;;2.60;1.80;;;19.30;99.90;;;;;;5063437;28;19916;-78
2021/09/25 08:35:26;;;;;;;2.78;1.67;;;19.30;99.90;;;;;;5057062;28;20041;-79
2021/09/25 08:37:51;;;;;;;;;;;19.30;99.90;;;;;;5039394;28;20056;-79
2021/09/25 08:40:21;;;;;;;8.35;2.20;;;19.30;99.90;;;;;;5073624;28;19924;-78
2021/09/25 08:42:47;;;;;;;8.43;2.58;;;19.40;99.90;;;;;;5057214;28;20055;-78
2021/09/25 08:45:14;;;;;;;5.85;2.42;;;19.60;99.90;;;;;;5055074;28;20106;-80
2021/09/25 08:47:40;;;;;;;2.83;2.17;;;19.70;99.90;;;;;;5054929;28;20057;-79
2021/09/25 08:50:08;;;;;;;4.68;2.42;;;19.70;99.90;;;;;;5058904;28;20051;-77
2021/09/25 08:52:34;;;;;;;3.50;2.35;;;19.60;99.90;;;;;;5055863;28;20049;-79
2021/09/25 08:55:00;;;;;;;8.10;2.63;;;19.60;99.90;;;;;;5040712;28;20097;-79
2021/09/25 08:57:25;;;;;;;8.55;2.65;;;19.70;99.90;;;;;;5058113;28;20044;-78
2021/09/25 08:59:51;;;;;;;3.85;2.15;;;19.70;99.90;;;;;;5049297;28;20037;-80
2021/09/25 09:02:18;;;;;;;;;;;19.80;99.90;;;;;;5060117;28;20052;-79
2021/09/25 09:04:45;;;;;;;4.97;2.05;;;19.70;99.90;;;;;;5053464;28;19945;-79
2021/09/25 09:07:34;;;;;;;3.15;2.08;;;19.60;99.90;;;;;;5072903;28;20120;-79
2021/09/25 09:09:59;;;;;;;4.22;2.45;;;19.70;99.90;;;;;;5044847;28;20028;-79
2021/09/25 09:12:27;;;;;;;3.78;1.90;;;19.70;99.90;;;;;;5062537;28;20721;-79
2021/09/25 09:14:55;;;;;;;5.05;2.78;;;19.90;99.90;;;;;;5054942;28;20037;-77
2021/09/25 09:17:27;;;;;;;6.60;1.98;;;19.90;99.90;;;;;;5061861;28;20434;-78
2021/09/25 09:19:54;;;;;;;7.93;2.08;;;20.10;99.90;;;;;;5050090;28;20040;-78
2021/09/25 09:22:21;;;;;;;3.05;2.05;;;;;;;;;;5057498;28;20085;-78
2021/09/25 09:24:50;;;;;;;6.90;2.15;;;20.30;99.90;;;;;;5060824;28;20122;-77
2021/09/25 09:27:25;;;;;;;2.30;1.65;;;20.30;99.90;;;;;;5067188;28;20052;-79
2021/09/25 09:30:09;;;;;;;2.63;1.67;;;20.30;99.90;;;;;;5073382;28;20040;-78
2021/09/25 09:32:42;;;;;;;7.75;2.03;;;20.30;99.90;;;;;;5052599;28;20401;-77
2021/09/25 09:35:15;;;;;;;3.03;2.15;;;20.40;99.90;;;;;;5060172;28;20139;-77
2021/09/25 09:37:41;;;;;;;3.40;1.90;;;20.30;99.90;;;;;;5039610;28;20060;-78
2021/09/25 09:40:09;;;;;;;6.07;2.53;;;20.30;99.90;;;;;;5055217;28;20048;-80
2021/09/25 09:42:41;;;;;;;9.27;2.20;;;20.40;99.90;;;;;;5054819;28;20044;-78
2021/09/25 09:45:07;;;;;;;8.73;2.72;;;20.50;99.90;;;;;;5037821;28;20043;-79
2021/09/25 09:47:46;;;;;;;2.13;1.50;;;20.50;99.90;;;;;;5052687;28;20133;-78
2021/09/25 09:50:14;;;;;;;3.08;1.83;;;20.60;99.90;;;;;;5053810;28;20043;-78
2021/09/25 09:52:40;;;;;;;2.75;1.92;;;20.80;99.90;;;;;;5072458;28;20033;-79
2021/09/25 09:55:07;;;;;;;3.22;1.85;;;21.00;99.90;;;;;;5071546;28;20043;-78
2021/09/25 09:57:34;;;;;;;4.25;2.28;;;21.10;99.90;;;;;;5067544;28;20550;-79
2021/09/25 10:00:01;;;;;;;2.40;1.80;;;21.00;99.90;;;;;;5042718;28;20041;-79
2021/09/25 10:02:26;;;;;;;5.75;2.53;;;21.00;99.90;;;;;;5072079;28;20033;-77
2021/09/25 10:04:52;;;;;;;3.72;2.33;;;21.00;99.90;;;;;;5042017;28;20381;-78
2021/09/25 10:07:18;;;;;;;2.15;1.63;;;21.10;99.90;;;;;;5072661;28;20066;-79
2021/09/25 10:09:44;;;;;;;1.95;1.70;;;21.10;99.90;;;;;;5065806;28;20437;-77
2021/09/25 10:12:13;;;;;;;4.10;2.33;;;21.10;99.90;;;;;;5063192;28;20127;-78
2021/09/25 10:14:42;;;;;;;5.13;2.22;;;21.20;99.90;;;;;;5056705;28;20460;-79
2021/09/25 10:17:10;;;;;;;2.33;1.80;;;21.10;99.90;;;;;;5056987;28;20139;-77
2021/09/25 10:19:38;;;;;;;6.25;2.85;;;21.00;99.90;;;;;;5055396;28;20434;-77
2021/09/25 10:22:11;;;;;;;4.93;2.28;;;21.00;99.90;;;;;;5064658;28;20048;-78
2021/09/25 10:24:44;;;;;;;5.00;2.53;;;20.90;99.90;;;;;;5060603;28;20048;-78
2021/09/25 10:27:10;;;;;;;3.63;2.28;;;20.90;99.90;;;;;;5071617;28;20040;-77
2021/09/25 10:29:46;;;;;;;4.28;2.70;;;20.90;99.90;;;;;;5053385;28;20388;-78
2021/09/25 10:32:15;;;;;;;3.95;2.20;;;21.10;99.90;;;;;;5050593;28;20044;-78
2021/09/25 10:34:53;;;;;;;2.65;2.00;;;21.20;99.90;;;;;;5055352;28;20088;-77
2021/09/25 10:37:19;;;;;;;5.85;1.80;;;21.40;99.90;;;;;;5058342;28;20061;-77
2021/09/25 10:39:57;;;;;;;5.20;1.80;;;21.50;99.90;;;;;;5054410;28;20044;-77
2021/09/25 10:42:38;;;;;;;4.72;2.53;;;21.60;99.90;;;;;;5054428;28;20489;-77
2021/09/25 10:45:08;;;;;;;7.47;2.10;;;21.80;99.90;;;;;;5061763;28;20032;-78
2021/09/25 10:47:34;;;;;;;4.90;2.15;;;21.90;99.90;;;;;;5052685;28;20508;-77
2021/09/25 10:50:01;;;;;;;3.13;2.22;;;22.10;99.90;;;;;;5058921;28;20043;-78
2021/09/25 10:52:49;;;;;;;2.25;2.03;;;22.20;99.90;;;;;;5050435;28;20044;-77
2021/09/25 10:55:29;;;;;;;2.55;1.95;;;22.40;99.90;;;;;;5061313;28;20086;-79
2021/09/25 10:58:15;;;;;;;4.05;2.47;;;22.50;99.90;;;;;;5059162;28;20036;-76
2021/09/25 11:01:09;;;;;;;2.00;1.63;;;22.60;99.90;;;;;;5076010;28;20044;-79
2021/09/25 11:03:46;;;;;;;3.05;2.10;;;22.50;99.90;;;;;;5067233;28;20047;-79
2021/09/25 11:06:39;;;;;;;5.90;2.35;;;22.40;99.90;;;;;;5065245;28;20052;-83
2021/09/25 11:09:41;;;;;;;3.92;1.55;;;22.40;99.90;;;;;;5042043;28;20043;-83
2021/09/25 11:12:09;;;;;;;2.08;1.60;;;22.40;99.90;;;;;;5051020;28;20394;-84
2021/09/25 11:14:56;;;;;;;3.63;1.75;;;22.40;99.90;;;;;;5064646;28;20044;-79
2021/09/25 11:17:27;;;;;;;2.38;1.60;;;22.40;99.90;;;;;;5055236;28;20047;-81
2021/09/25 11:20:03;;;;;;;1.98;1.52;;;22.40;99.90;;;;;;5064079;28;20055;-81
2021/09/25 11:22:35;;;;;;;2.92;1.73;;;22.40;99.90;;;;;;5054224;28;20036;-78
2021/09/25 11:25:11;;;;;;;1.88;1.40;;;22.40;99.90;;;;;;5047172;28;20114;-80
2021/09/25 11:27:45;;;;;;;3.22;1.70;;;22.50;99.90;;;;;;5061580;28;20044;-77
2021/09/25 11:30:18;;;;;;;3.08;1.42;;;22.40;99.90;;;;;;5060877;28;20393;-78
2021/09/25 11:32:48;;;;;;;2.80;1.98;;;22.40;99.90;;;;;;5058044;28;20072;-78
2021/09/25 11:35:19;;;;;;;3.28;2.05;;;22.40;99.90;;;;;;5066723;28;20041;-79
2021/09/25 11:37:59;;;;;;;3.00;1.70;;;22.30;99.90;;;;;;5071820;28;20119;-79
2021/09/25 11:40:33;;;;;;;1.52;1.13;;;22.40;99.90;;;;;;5048782;28;20386;-77
2021/09/25 11:43:04;;;;;;;3.60;2.08;;;22.30;99.90;;;;;;5072733;28;20052;-77
2021/09/25 11:45:33;;;;;;;1.77;1.45;;;22.40;99.90;;;;;;5073582;28;20055;-77
2021/09/25 11:48:01;;;;;;;2.72;1.85;;;22.40;99.90;;;;;;5073016;28;20051;-75
2021/09/25 11:50:30;;;;;;;3.25;1.65;;;22.40;99.90;;;;;;5050804;28;20121;-78
2021/09/25 11:52:59;;;;;;;2.13;1.30;;;22.40;99.90;;;;;;5067111;28;20075;-79
2021/09/25 11:55:30;;;;;;;8.32;1.83;;;22.20;99.90;;;;;;5074319;28;20386;-76
2021/09/25 11:58:10;;;;;;;1.90;1.40;;;22.00;99.90;;;;;;5056119;28;20063;-76
2021/09/25 12:00:40;;;;;;;2.03;1.50;;;21.80;99.90;;;;;;5074569;28;20120;-78
2021/09/25 12:03:08;;;;;;;2.92;1.48;;;21.70;99.90;;;;;;5073494;28;20357;-79
2021/09/25 12:05:44;;;;;;;2.63;1.90;;;21.60;99.90;;;;;;5059473;28;20052;-78
2021/09/25 12:08:13;;;;;;;2.80;2.47;;;21.50;99.90;;;;;;5073574;28;20169;-76
2021/09/25 12:10:42;;;;;;;3.05;2.28;;;21.30;99.90;;;;;;5054697;28;20049;-77
2021/09/25 12:13:17;;;;;;;4.75;2.78;;;21.20;99.90;;;;;;5067165;28;20562;-78
2021/09/25 12:15:47;;;;;;;2.60;1.77;;;21.10;99.90;;;;;;5058843;28;20074;-78
2021/09/25 12:18:22;;;;;;;4.72;2.58;;;21.10;99.90;;;;;;5061996;28;20117;-77
2021/09/25 12:21:07;;;;;;;4.78;2.72;;;21.00;99.90;;;;;;5055552;28;20201;-78
2021/09/25 12:23:43;;;;;;;3.90;2.15;;;21.00;99.90;;;;;;5046109;28;20080;-78
2021/09/25 12:26:11;;;;;;;4.60;2.57;;;21.00;99.90;;;;;;5072234;28;20063;-79
2021/09/25 12:28:48;;;;;;;3.60;2.35;;;20.90;99.90;;;;;;5056276;28;20037;-77
2021/09/25 12:31:37;;;;;;;5.22;2.55;;;21.00;99.90;;;;;;5055746;28;20482;-77
2021/09/25 12:34:10;;;;;;;5.65;2.70;;;21.00;99.90;;;;;;5053562;28;20098;-76
2021/09/25 12:36:45;;;;;;;3.60;2.33;;;20.90;99.90;;;;;;5062951;28;20164;-76
2021/09/25 12:39:20;;;;;;;4.82;2.50;;;20.80;99.90;;;;;;5073043;28;20052;-76
2021/09/25 12:41:48;;;;;;;2.17;1.77;;;20.90;99.90;;;;;;5054700;28;20068;-78
2021/09/25 12:44:19;;;;;;;4.47;2.42;;;20.90;99.90;;;;;;5054496;28;20074;-78
2021/09/25 12:46:53;;;;;;;5.68;2.28;;;20.80;99.90;;;;;;5054111;28;20078;-77
2021/09/25 12:49:35;;;;;;;2.40;1.88;;;20.90;99.90;;;;;;5053810;28;20048;-76
2021/09/25 12:52:13;;;;;;;5.13;2.75;;;20.80;99.90;;;;;;5038625;28;20044;-77
2021/09/25 12:54:41;;;;;;;5.90;3.63;;;20.80;99.90;;;;;;5038401;28;20052;-79
2021/09/25 12:57:10;;;;;;;5.50;3.20;;;20.80;99.90;;;;;;5051506;28;20057;-80
2021/09/25 12:59:44;;;;;;;4.28;2.47;;;20.80;99.90;;;;;;5054650;28;20048;-79
2021/09/25 13:02:11;;;;;;;5.80;3.60;;;20.70;99.90;;;;;;5054375;28;20044;-78
2021/09/25 13:04:48;;;;;;;3.65;2.33;;;20.70;99.90;;;;;;5053751;28;20048;-77
2021/09/25 13:07:23;;;;;;;3.67;2.88;;;20.60;99.90;;;;;;5054282;28;20132;-77